createdAt,value
2019-03-26T00:00:55.256Z,14.50
2019-03-26T00:01:55.201Z,17.60
2019-03-26T00:02:55.162Z,16.40
2019-03-26T00:04:05.361Z,15.40
2019-03-26T00:04:55.058Z,16.60
2019-03-26T00:05:54.985Z,17.60
2019-03-26T00:06:55.089Z,16.30
2019-03-26T00:07:54.878Z,17.10
2019-03-26T00:08:54.825Z,19.10
2019-03-26T00:09:54.789Z,19.90
2019-03-26T00:10:54.719Z,18.20
2019-03-26T00:11:54.906Z,20.20
2019-03-26T00:12:54.611Z,20.70
2019-03-26T00:13:57.554Z,21.00
2019-03-26T00:14:54.506Z,19.00
2019-03-26T00:15:54.449Z,17.90
2019-03-26T00:16:54.602Z,19.80
2019-03-26T00:17:54.347Z,18.30
2019-03-26T00:18:54.290Z,18.90
2019-03-26T00:19:54.261Z,20.50
2019-03-26T00:20:54.183Z,19.70
2019-03-26T00:21:54.306Z,20.80
2019-03-26T00:22:54.142Z,19.70
2019-03-26T00:23:54.021Z,21.30
2019-03-26T00:24:53.986Z,18.90
2019-03-26T00:25:53.913Z,21.80
2019-03-26T00:26:54.102Z,21.10
2019-03-26T00:27:53.815Z,21.80
2019-03-26T00:28:53.775Z,22.00
2019-03-26T00:29:53.907Z,19.80
2019-03-26T00:30:53.645Z,19.40
2019-03-26T00:31:53.596Z,20.10
2019-03-26T00:32:53.557Z,21.10
2019-03-26T00:33:53.489Z,22.40
2019-03-26T00:34:53.611Z,20.60
2019-03-26T00:35:53.380Z,20.60
2019-03-26T00:36:53.327Z,20.80
2019-03-26T00:37:53.281Z,24.50
2019-03-26T00:38:53.216Z,21.60
2019-03-26T00:39:53.411Z,23.10
2019-03-26T00:40:53.111Z,19.30
2019-03-26T00:41:53.056Z,21.50
2019-03-26T00:42:53.020Z,22.10
2019-03-26T00:43:52.947Z,20.70
2019-03-26T00:44:53.107Z,18.50
2019-03-26T00:45:52.840Z,20.90
2019-03-26T00:46:52.789Z,20.50
2019-03-26T00:47:52.751Z,19.80
2019-03-26T00:48:52.682Z,18.10
2019-03-26T00:49:52.820Z,18.20
2019-03-26T00:50:52.575Z,19.60
2019-03-26T00:51:52.518Z,17.10
2019-03-26T00:52:52.485Z,18.70
2019-03-26T00:53:52.414Z,16.70
2019-03-26T00:54:52.525Z,20.00
2019-03-26T00:55:52.305Z,21.40
2019-03-26T00:56:52.253Z,21.40
2019-03-26T00:57:52.244Z,19.30
2019-03-26T00:58:52.215Z,17.70
2019-03-26T00:59:52.329Z,18.60
2019-03-26T01:00:52.150Z,18.20
2019-03-26T01:01:51.982Z,18.50
2019-03-26T01:02:51.932Z,17.40
2019-03-26T01:03:54.799Z,17.40
2019-03-26T01:04:51.825Z,18.40
2019-03-26T01:05:51.776Z,18.90
2019-03-26T01:06:51.730Z,17.30
2019-03-26T01:07:51.664Z,18.10
2019-03-26T01:08:51.823Z,19.40
2019-03-26T01:09:51.557Z,18.30
2019-03-26T01:10:51.502Z,16.90
2019-03-26T01:11:51.467Z,18.30
2019-03-26T01:12:51.399Z,15.90
2019-03-26T01:13:51.531Z,17.50
2019-03-26T01:14:51.290Z,15.50
2019-03-26T01:15:51.237Z,18.10
2019-03-26T01:16:51.203Z,18.90
2019-03-26T01:17:51.132Z,17.30
2019-03-26T01:18:51.227Z,16.20
2019-03-26T01:19:51.023Z,17.60
2019-03-26T01:20:50.967Z,15.30
2019-03-26T01:21:50.931Z,15.10
2019-03-26T01:22:50.865Z,18.10
2019-03-26T01:23:51.033Z,16.90
2019-03-26T01:24:50.761Z,18.00
2019-03-26T01:25:50.708Z,16.70
2019-03-26T01:26:50.670Z,17.60
2019-03-26T01:27:50.599Z,18.10
2019-03-26T01:28:50.744Z,17.30
2019-03-26T01:29:50.497Z,17.90
2019-03-26T01:30:50.439Z,17.60
2019-03-26T01:31:50.400Z,16.70
2019-03-26T01:32:50.333Z,21.30
2019-03-26T01:33:50.432Z,17.30
2019-03-26T01:34:50.231Z,18.70
2019-03-26T01:35:50.185Z,14.80
2019-03-26T01:36:50.138Z,17.10
2019-03-26T01:37:50.067Z,15.10
2019-03-26T01:38:50.249Z,18.50
2019-03-26T01:39:49.962Z,17.10
2019-03-26T01:40:49.908Z,15.20
2019-03-26T01:41:49.877Z,14.70
2019-03-26T01:42:49.800Z,15.40
2019-03-26T01:43:49.959Z,15.80
2019-03-26T01:44:49.695Z,16.10
2019-03-26T01:45:49.639Z,15.20
2019-03-26T01:46:49.605Z,16.20
2019-03-26T01:47:49.536Z,15.20
2019-03-26T01:48:49.647Z,17.50
2019-03-26T01:49:49.430Z,14.40
2019-03-26T01:50:49.377Z,16.20
2019-03-26T01:51:49.337Z,16.80
2019-03-26T01:52:49.270Z,17.80
2019-03-26T01:53:49.454Z,17.90
2019-03-26T01:54:49.165Z,19.90
2019-03-26T01:55:49.111Z,16.80
2019-03-26T01:56:49.080Z,17.60
2019-03-26T01:57:49.004Z,20.60
2019-03-26T01:58:49.148Z,19.00
2019-03-26T01:59:48.904Z,16.70
2019-03-26T02:00:48.854Z,19.70
2019-03-26T02:01:48.803Z,18.00
2019-03-26T02:02:48.738Z,18.10
2019-03-26T02:03:48.854Z,15.70
2019-03-26T02:04:59.370Z,15.30
2019-03-26T02:05:48.580Z,17.30
2019-03-26T02:06:48.541Z,16.20
2019-03-26T02:07:48.476Z,20.00
2019-03-26T02:08:48.645Z,18.10
2019-03-26T02:09:48.367Z,17.50
2019-03-26T02:10:48.314Z,18.50
2019-03-26T02:11:48.271Z,17.80
2019-03-26T02:12:48.731Z,17.30
2019-03-26T02:13:48.349Z,17.80
2019-03-26T02:14:48.098Z,17.00
2019-03-26T02:15:48.047Z,19.00
2019-03-26T02:16:48.012Z,18.80
2019-03-26T02:17:47.940Z,19.20
2019-03-26T02:18:48.070Z,16.00
2019-03-26T02:19:47.829Z,19.60
2019-03-26T02:20:47.777Z,16.30
2019-03-26T02:21:47.743Z,21.40
2019-03-26T02:22:47.672Z,19.50
2019-03-26T02:23:47.868Z,19.40
2019-03-26T02:24:47.565Z,17.70
2019-03-26T02:25:47.513Z,19.00
2019-03-26T02:26:47.476Z,19.40
2019-03-26T02:27:47.408Z,17.70
2019-03-26T02:28:47.561Z,17.90
2019-03-26T02:29:47.298Z,17.70
2019-03-26T02:30:47.246Z,17.90
2019-03-26T02:31:47.207Z,17.00
2019-03-26T02:32:47.139Z,16.10
2019-03-26T02:33:47.272Z,16.00
2019-03-26T02:34:47.032Z,19.50
2019-03-26T02:35:47.062Z,16.80
2019-03-26T02:36:47.165Z,17.60
2019-03-26T02:37:46.870Z,18.40
2019-03-26T02:38:46.820Z,18.80
2019-03-26T02:39:46.779Z,20.10
2019-03-26T02:40:46.712Z,22.70
2019-03-26T02:41:46.875Z,18.60
2019-03-26T02:42:46.604Z,18.30
2019-03-26T02:43:46.557Z,18.40
2019-03-26T02:44:46.518Z,17.50
2019-03-26T02:45:46.444Z,18.70
2019-03-26T02:46:46.590Z,17.90
2019-03-26T02:47:46.338Z,15.40
2019-03-26T02:48:46.283Z,17.80
2019-03-26T02:49:46.249Z,17.80
2019-03-26T02:50:46.177Z,18.50
2019-03-26T02:51:46.272Z,16.80
2019-03-26T02:52:46.070Z,19.20
2019-03-26T02:53:46.018Z,18.50
2019-03-26T02:54:45.979Z,19.10
2019-03-26T02:55:45.912Z,17.80
2019-03-26T02:56:46.080Z,18.30
2019-03-26T02:57:45.805Z,20.70
2019-03-26T02:58:45.750Z,19.40
2019-03-26T02:59:45.713Z,19.40
2019-03-26T03:00:45.644Z,19.90
2019-03-26T03:01:45.769Z,17.90
2019-03-26T03:02:45.541Z,18.80
2019-03-26T03:03:45.502Z,19.40
2019-03-26T03:04:45.453Z,21.20
2019-03-26T03:05:45.377Z,18.30
2019-03-26T03:06:45.487Z,17.20
2019-03-26T03:07:45.270Z,18.80
2019-03-26T03:08:45.218Z,17.70
2019-03-26T03:09:45.181Z,18.60
2019-03-26T03:10:45.109Z,19.20
2019-03-26T03:11:45.276Z,16.70
2019-03-26T03:12:45.114Z,18.50
2019-03-26T03:13:44.955Z,18.70
2019-03-26T03:14:44.910Z,20.40
2019-03-26T03:15:44.843Z,19.20
2019-03-26T03:16:44.998Z,20.50
2019-03-26T03:17:44.739Z,18.30
2019-03-26T03:18:44.685Z,18.90
2019-03-26T03:19:44.653Z,21.50
2019-03-26T03:20:44.590Z,18.80
2019-03-26T03:21:44.695Z,19.60
2019-03-26T03:22:44.472Z,19.80
2019-03-26T03:23:44.414Z,20.90
2019-03-26T03:24:44.381Z,17.80
2019-03-26T03:25:44.315Z,20.20
2019-03-26T03:26:44.560Z,19.90
2019-03-26T03:27:44.213Z,19.90
2019-03-26T03:28:44.153Z,18.80
2019-03-26T03:29:44.112Z,19.30
2019-03-26T03:30:44.045Z,22.10
2019-03-26T03:31:44.214Z,19.70
2019-03-26T03:32:43.939Z,19.40
2019-03-26T03:33:43.885Z,20.10
2019-03-26T03:34:43.844Z,19.60
2019-03-26T03:35:51.953Z,20.10
2019-03-26T03:36:43.724Z,20.90
2019-03-26T03:37:43.673Z,19.10
2019-03-26T03:38:43.804Z,23.90
2019-03-26T03:39:43.565Z,19.80
2019-03-26T03:40:43.512Z,24.20
2019-03-26T03:41:43.477Z,23.80
2019-03-26T03:42:43.405Z,23.20
2019-03-26T03:43:43.600Z,24.80
2019-03-26T03:44:43.298Z,23.20
2019-03-26T03:45:43.256Z,24.40
2019-03-26T03:46:43.217Z,23.40
2019-03-26T03:47:43.139Z,26.60
2019-03-26T03:48:43.318Z,27.80
2019-03-26T03:49:43.033Z,24.60
2019-03-26T03:50:42.981Z,25.00
2019-03-26T03:51:42.940Z,26.60
2019-03-26T03:52:42.904Z,23.40
2019-03-26T03:53:43.009Z,27.70
2019-03-26T03:54:42.763Z,26.00
2019-03-26T03:55:42.714Z,28.10
2019-03-26T03:56:42.678Z,23.60
2019-03-26T03:57:42.606Z,26.70
2019-03-26T03:58:42.570Z,24.30
2019-03-26T03:59:42.496Z,25.80
2019-03-26T04:00:42.596Z,26.80
2019-03-26T04:01:42.390Z,24.90
2019-03-26T04:02:42.337Z,25.40
2019-03-26T04:03:42.301Z,27.20
2019-03-26T04:04:42.229Z,23.80
2019-03-26T04:05:42.421Z,24.10
2019-03-26T04:06:42.240Z,23.80
2019-03-26T04:07:42.068Z,26.10
2019-03-26T04:08:42.034Z,26.40
2019-03-26T04:09:41.966Z,27.50
2019-03-26T04:10:42.109Z,25.10
2019-03-26T04:11:41.863Z,29.10
2019-03-26T04:12:41.802Z,27.90
2019-03-26T04:13:41.771Z,28.20
2019-03-26T04:14:41.696Z,26.60
2019-03-26T04:15:41.812Z,26.10
2019-03-26T04:16:41.591Z,25.40
2019-03-26T04:17:41.539Z,23.40
2019-03-26T04:18:41.502Z,25.80
2019-03-26T04:19:41.431Z,24.40
2019-03-26T04:20:41.617Z,23.00
2019-03-26T04:21:41.329Z,25.20
2019-03-26T04:22:41.270Z,28.60
2019-03-26T04:23:41.242Z,24.80
2019-03-26T04:24:41.163Z,26.80
2019-03-26T04:25:41.320Z,28.00
2019-03-26T04:26:41.060Z,26.60
2019-03-26T04:27:41.008Z,25.20
2019-03-26T04:28:40.969Z,27.10
2019-03-26T04:29:40.898Z,25.40
2019-03-26T04:30:41.019Z,27.70
2019-03-26T04:31:40.809Z,28.80
2019-03-26T04:32:40.738Z,28.50
2019-03-26T04:33:40.704Z,29.50
2019-03-26T04:34:40.630Z,30.80
2019-03-26T04:35:40.822Z,29.00
2019-03-26T04:36:40.546Z,29.00
2019-03-26T04:37:40.471Z,26.80
2019-03-26T04:38:40.433Z,30.10
2019-03-26T04:39:40.360Z,29.30
2019-03-26T04:40:40.532Z,26.70
2019-03-26T04:41:40.260Z,28.00
2019-03-26T04:42:40.207Z,32.10
2019-03-26T04:43:40.168Z,26.80
2019-03-26T04:44:40.097Z,27.80
2019-03-26T04:45:40.334Z,27.50
2019-03-26T04:46:39.991Z,25.40
2019-03-26T04:47:39.938Z,25.50
2019-03-26T04:48:39.903Z,26.50
2019-03-26T04:49:39.831Z,27.30
2019-03-26T04:50:39.926Z,26.70
2019-03-26T04:51:39.721Z,26.20
2019-03-26T04:52:39.669Z,25.90
2019-03-26T04:53:39.642Z,25.80
2019-03-26T04:54:39.563Z,27.00
2019-03-26T04:55:39.734Z,25.80
2019-03-26T04:56:39.464Z,24.00
2019-03-26T04:57:39.404Z,27.00
2019-03-26T04:58:39.351Z,26.90
2019-03-26T04:59:39.301Z,26.90
2019-03-26T05:00:39.264Z,23.80
2019-03-26T05:01:39.191Z,26.60
2019-03-26T05:02:39.330Z,25.00
2019-03-26T05:03:39.084Z,25.70
2019-03-26T05:04:39.033Z,22.80
2019-03-26T05:05:38.990Z,23.00
2019-03-26T05:06:38.920Z,24.40
2019-03-26T05:07:39.036Z,21.90
2019-03-26T05:08:38.817Z,23.50
2019-03-26T05:09:38.771Z,23.20
2019-03-26T05:10:38.728Z,26.40
2019-03-26T05:11:38.659Z,23.60
2019-03-26T05:12:38.829Z,24.10
2019-03-26T05:13:38.550Z,24.90
2019-03-26T05:14:38.498Z,22.60
2019-03-26T05:15:38.462Z,23.40
2019-03-26T05:16:38.386Z,23.30
2019-03-26T05:17:38.533Z,24.60
2019-03-26T05:18:38.286Z,25.40
2019-03-26T05:19:38.231Z,24.00
2019-03-26T05:20:38.194Z,23.30
2019-03-26T05:21:38.126Z,24.20
2019-03-26T05:22:38.239Z,25.90
2019-03-26T05:23:38.017Z,26.90
2019-03-26T05:24:37.964Z,24.70
2019-03-26T05:25:37.931Z,24.70
2019-03-26T05:26:37.861Z,25.60
2019-03-26T05:27:45.334Z,26.10
2019-03-26T05:28:37.752Z,25.70
2019-03-26T05:29:37.698Z,25.40
2019-03-26T05:30:37.663Z,26.10
2019-03-26T05:31:37.591Z,26.10
2019-03-26T05:32:37.756Z,23.30
2019-03-26T05:33:37.486Z,25.30
2019-03-26T05:34:37.432Z,27.00
2019-03-26T05:35:37.395Z,27.00
2019-03-26T05:36:50.360Z,25.40
2019-03-26T05:37:37.291Z,25.80
2019-03-26T05:38:37.331Z,29.80
2019-03-26T05:39:37.360Z,26.80
2019-03-26T05:40:37.113Z,27.90
2019-03-26T05:41:37.059Z,31.10
2019-03-26T05:42:37.023Z,30.20
2019-03-26T05:43:36.952Z,27.70
2019-03-26T05:44:37.044Z,29.90
2019-03-26T05:45:36.845Z,29.70
2019-03-26T05:46:36.790Z,32.60
2019-03-26T05:47:36.752Z,32.80
2019-03-26T05:48:36.689Z,35.50
2019-03-26T05:49:36.858Z,32.60
2019-03-26T05:50:36.586Z,31.60
2019-03-26T05:51:36.526Z,31.10
2019-03-26T05:52:36.490Z,28.90
2019-03-26T05:53:36.420Z,32.60
2019-03-26T05:54:36.556Z,31.30
2019-03-26T05:55:36.315Z,34.00
2019-03-26T05:56:36.259Z,31.40
2019-03-26T05:57:36.223Z,40.90
2019-03-26T05:58:36.151Z,30.00
2019-03-26T05:59:36.263Z,36.30
2019-03-26T06:00:36.045Z,30.70
2019-03-26T06:01:35.992Z,32.20
2019-03-26T06:02:35.956Z,31.80
2019-03-26T06:03:35.891Z,34.50
2019-03-26T06:04:36.058Z,34.50
2019-03-26T06:05:35.779Z,33.20
2019-03-26T06:06:35.730Z,36.90
2019-03-26T06:07:35.690Z,32.40
2019-03-26T06:08:35.620Z,30.90
2019-03-26T06:09:35.760Z,32.00
2019-03-26T06:10:35.513Z,30.80
2019-03-26T06:11:35.459Z,30.30
2019-03-26T06:12:35.419Z,31.10
2019-03-26T06:13:35.354Z,29.50
2019-03-26T06:14:35.460Z,28.80
2019-03-26T06:15:35.247Z,28.40
2019-03-26T06:16:38.467Z,30.70
2019-03-26T06:17:35.141Z,28.70
2019-03-26T06:18:35.089Z,31.10
2019-03-26T06:19:35.062Z,30.60
2019-03-26T06:20:34.978Z,28.20
2019-03-26T06:21:35.170Z,29.10
2019-03-26T06:22:35.013Z,29.00
2019-03-26T06:23:34.818Z,26.60
2019-03-26T06:24:34.768Z,25.50
2019-03-26T06:25:34.715Z,27.20
2019-03-26T06:26:34.697Z,24.80
2019-03-26T06:27:34.615Z,24.10
2019-03-26T06:28:34.701Z,25.90
2019-03-26T06:29:34.502Z,24.30
2019-03-26T06:30:34.463Z,22.80
2019-03-26T06:31:34.397Z,23.00
2019-03-26T06:32:34.343Z,23.60
2019-03-26T06:33:34.293Z,21.80
2019-03-26T06:34:34.238Z,22.10
2019-03-26T06:35:34.184Z,22.70
2019-03-26T06:36:34.130Z,22.40
2019-03-26T06:37:34.079Z,21.50
2019-03-26T06:38:34.022Z,22.10
2019-03-26T06:39:33.973Z,20.90
2019-03-26T06:40:33.917Z,21.50
2019-03-26T06:41:33.872Z,23.10
2019-03-26T06:42:33.822Z,21.50
2019-03-26T06:43:33.760Z,21.80
2019-03-26T06:44:33.713Z,21.40
2019-03-26T06:45:33.657Z,21.20
2019-03-26T06:46:33.601Z,22.20
2019-03-26T06:47:33.559Z,17.90
2019-03-26T06:48:33.494Z,21.20
2019-03-26T06:49:33.445Z,18.90
2019-03-26T06:50:33.575Z,22.50
2019-03-26T06:51:33.351Z,19.00
2019-03-26T06:52:33.285Z,20.90
2019-03-26T06:53:33.232Z,20.40
2019-03-26T06:54:33.187Z,17.70
2019-03-26T06:55:33.133Z,20.10
2019-03-26T06:56:33.075Z,18.20
2019-03-26T06:57:35.813Z,17.10
2019-03-26T06:58:32.977Z,21.20
2019-03-26T06:59:32.927Z,15.20
2019-03-26T07:00:32.871Z,16.10
2019-03-26T07:01:32.823Z,17.60
2019-03-26T07:02:32.766Z,18.40
2019-03-26T07:03:33.216Z,17.70
2019-03-26T07:04:33.088Z,16.40
2019-03-26T07:05:32.628Z,17.10
2019-03-26T07:06:32.803Z,17.40
2019-03-26T07:07:32.504Z,16.40
2019-03-26T07:08:32.447Z,17.10
2019-03-26T07:09:32.394Z,15.50
2019-03-26T07:10:32.344Z,15.40
2019-03-26T07:11:53.282Z,17.00
2019-03-26T07:12:32.235Z,15.00
2019-03-26T07:13:32.189Z,15.60
2019-03-26T07:14:32.139Z,17.80
2019-03-26T07:15:32.092Z,14.80
2019-03-26T07:16:32.026Z,12.20
2019-03-26T07:17:31.980Z,12.90
2019-03-26T07:18:31.923Z,10.60
2019-03-26T07:19:31.888Z,11.40
2019-03-26T07:20:31.819Z,12.20
2019-03-26T07:21:31.901Z,10.30
2019-03-26T07:22:31.713Z,11.40
2019-03-26T07:23:31.664Z,11.40
2019-03-26T07:24:31.610Z,10.70
2019-03-26T07:25:31.563Z,11.50
2019-03-26T07:27:58.394Z,10.30
